createdAt,value
2018-12-19T00:01:42.610Z,5.55
2018-12-19T00:07:37.599Z,6.22
2018-12-19T00:13:32.597Z,6.59
2018-12-19T00:19:27.632Z,7.49
2018-12-19T00:25:22.589Z,7.85
2018-12-19T00:31:17.613Z,7.55
2018-12-19T00:37:12.606Z,7.05
2018-12-19T00:43:07.614Z,7.18
2018-12-19T00:49:02.606Z,6.08
2018-12-19T00:54:57.634Z,6.22
2018-12-19T01:00:52.618Z,6.07
2018-12-19T01:06:47.619Z,7.28
2018-12-19T01:12:42.623Z,5.87
2018-12-19T01:18:37.612Z,5.52
2018-12-19T01:24:32.625Z,6.28
2018-12-19T01:30:27.638Z,7.2
2018-12-19T01:36:22.680Z,5.66
2018-12-19T01:42:17.638Z,7.21
2018-12-19T01:48:12.683Z,6.91
2018-12-19T01:54:07.700Z,7.63
2018-12-19T02:00:02.656Z,9.72
2018-12-19T02:05:57.664Z,8.71
2018-12-19T02:11:52.662Z,8.85
2018-12-19T02:17:47.784Z,8.86
2018-12-19T02:23:42.716Z,6.86
2018-12-19T02:29:37.667Z,7.61
2018-12-19T02:35:32.672Z,6.74
2018-12-19T02:41:27.655Z,7.36
2018-12-19T02:47:22.706Z,7.75
2018-12-19T02:53:17.651Z,8.41
2018-12-19T02:59:12.653Z,9.3
2018-12-19T03:05:07.665Z,9.84
2018-12-19T03:11:02.728Z,10.44
2018-12-19T03:16:57.696Z,8.85
2018-12-19T03:22:52.786Z,9.34
2018-12-19T03:28:47.669Z,8.07
2018-12-19T03:34:42.700Z,7.17
2018-12-19T03:40:37.741Z,9.27
2018-12-19T03:46:32.708Z,6.9
2018-12-19T03:52:27.687Z,5.46
2018-12-19T03:58:22.693Z,5.97
2018-12-19T04:04:17.685Z,5.5
2018-12-19T04:10:12.718Z,5.19
2018-12-19T04:16:07.791Z,6.11
2018-12-19T04:22:02.702Z,6.36
2018-12-19T04:27:57.721Z,6.55
2018-12-19T04:33:52.709Z,7.6
2018-12-19T04:39:47.755Z,8.44
2018-12-19T04:45:42.727Z,8.33
2018-12-19T04:51:37.801Z,7.63
2018-12-19T04:57:32.719Z,7.49
2018-12-19T05:03:27.730Z,7.11
2018-12-19T05:09:22.779Z,5.53
2018-12-19T05:15:17.736Z,6.29
2018-12-19T05:21:12.752Z,6.93
2018-12-19T05:27:07.747Z,7.15
2018-12-19T05:33:02.729Z,6.59
2018-12-19T05:38:57.763Z,6.98
2018-12-19T05:44:52.737Z,7.71
2018-12-19T05:50:47.749Z,7.64
2018-12-19T05:56:42.757Z,8.8
2018-12-19T06:02:37.769Z,11.23
2018-12-19T06:08:32.773Z,11.38
2018-12-19T06:14:27.779Z,13.45
2018-12-19T06:20:22.847Z,14.77
2018-12-19T06:26:17.771Z,9.61
2018-12-19T06:32:12.814Z,9.73
2018-12-19T06:38:07.783Z,11.03
2018-12-19T06:44:02.784Z,15.13
2018-12-19T06:49:57.812Z,9.7
2018-12-19T06:55:52.828Z,7.46
2018-12-19T07:01:47.785Z,5.92
2018-12-19T07:07:42.785Z,6.79
2018-12-19T07:13:37.814Z,5.95
2018-12-19T07:19:32.809Z,6.02
2018-12-19T07:25:27.787Z,8.55
2018-12-19T07:31:22.800Z,9.57
2018-12-19T07:37:17.823Z,8.77
2018-12-19T07:43:12.804Z,9.83
2018-12-19T07:49:07.821Z,8.86
2018-12-19T07:55:02.811Z,9.98
2018-12-19T08:00:57.854Z,13.44
2018-12-19T08:06:52.808Z,15.85
2018-12-19T08:12:47.847Z,17.77
2018-12-19T08:18:42.840Z,23.85
2018-12-19T08:24:37.824Z,27.3
2018-12-19T08:30:32.841Z,73.93
2018-12-19T08:36:27.860Z,40.21
2018-12-19T08:42:22.835Z,37.98
2018-12-19T08:48:17.827Z,41.26
2018-12-19T08:54:12.839Z,28.38
2018-12-19T09:00:07.847Z,25.77
2018-12-19T09:06:02.846Z,25.78
2018-12-19T09:11:57.883Z,25.69
2018-12-19T09:17:52.845Z,26.71
2018-12-19T09:23:47.962Z,26.23
2018-12-19T09:29:42.871Z,38.93
2018-12-19T09:35:37.873Z,30.75
2018-12-19T09:41:32.912Z,30.96
2018-12-19T09:47:27.914Z,32.33
2018-12-19T09:53:22.899Z,34.07
2018-12-19T09:59:17.920Z,43.75
2018-12-19T10:05:12.873Z,48.95
2018-12-19T10:11:07.876Z,45.97
2018-12-19T10:17:02.887Z,45.4
2018-12-19T10:22:57.926Z,43.46
2018-12-19T10:28:52.880Z,43.17
2018-12-19T10:34:47.902Z,48.06
2018-12-19T10:40:42.910Z,47.17
2018-12-19T10:46:38.388Z,41.72
2018-12-19T10:52:32.933Z,42.01
2018-12-19T10:58:27.912Z,39.8
2018-12-19T11:04:22.927Z,39.51
2018-12-19T11:10:17.934Z,45.54
2018-12-19T11:16:12.917Z,61.94
2018-12-19T11:22:07.964Z,39.88
2018-12-19T11:28:02.976Z,38.7
2018-12-19T11:33:57.983Z,43.63
2018-12-19T11:39:52.965Z,43.13
2018-12-19T11:45:47.957Z,44.95
2018-12-19T11:51:42.946Z,40
2018-12-19T11:57:37.941Z,44.53
2018-12-19T12:03:32.956Z,43.59
2018-12-19T12:09:27.946Z,44.64
2018-12-19T12:15:22.948Z,45.74
2018-12-19T12:21:17.967Z,44.3
2018-12-19T12:27:12.980Z,40.7
2018-12-19T12:33:07.994Z,38
2018-12-19T12:39:02.999Z,37.37
2018-12-19T12:44:57.975Z,37.55
2018-12-19T12:50:52.967Z,36.75
2018-12-19T12:56:48.010Z,37.87
2018-12-19T13:02:43.040Z,45.55
2018-12-19T13:08:38.000Z,42.67
2018-12-19T13:14:32.980Z,30.6
2018-12-19T13:20:27.982Z,35.87
2018-12-19T13:26:23.031Z,38.37
2018-12-19T13:32:18.003Z,44.61
2018-12-19T13:38:12.994Z,45.82
2018-12-19T13:44:07.991Z,45.09
2018-12-19T13:50:03.056Z,41.91
2018-12-19T13:55:58.010Z,38.84
2018-12-19T14:01:53.017Z,36.97
2018-12-19T14:07:48.071Z,37.03
2018-12-19T14:13:43.015Z,37.96
2018-12-19T14:19:38.031Z,39.19
2018-12-19T14:25:33.026Z,39.06
2018-12-19T14:31:28.063Z,36.98
2018-12-19T14:37:23.037Z,36.56
2018-12-19T14:43:18.021Z,33.46
2018-12-19T14:49:14.026Z,34.96
2018-12-19T14:55:08.089Z,36.87
2018-12-19T15:01:03.047Z,36.98
2018-12-19T15:06:58.057Z,36.16
2018-12-19T15:12:53.044Z,34.76
2018-12-19T15:18:48.106Z,35.56
2018-12-19T15:24:43.069Z,36.93
2018-12-19T15:30:38.057Z,34.73
2018-12-19T15:36:33.058Z,35.03
2018-12-19T15:42:32.425Z,32.16
2018-12-19T15:48:23.076Z,26.38
2018-12-19T15:54:18.130Z,23.85
2018-12-19T16:00:13.068Z,25.14
2018-12-19T16:06:08.096Z,25.2
2018-12-19T16:12:03.119Z,23.57
2018-12-19T16:17:58.081Z,22.42
2018-12-19T16:23:53.129Z,21.8
2018-12-19T16:29:48.193Z,21.2
2018-12-19T16:35:43.107Z,19.49
2018-12-19T16:41:38.124Z,17.12
2018-12-19T16:47:33.119Z,16.12
2018-12-19T16:53:28.089Z,21.97
2018-12-19T16:59:23.104Z,21.15
2018-12-19T17:05:18.107Z,21.6
2018-12-19T17:11:13.136Z,23.91
2018-12-19T17:17:08.133Z,24.46
2018-12-19T17:23:03.145Z,30.88
2018-12-19T17:28:58.174Z,26.45
2018-12-19T17:34:53.141Z,21.83
2018-12-19T17:40:48.152Z,18.87
2018-12-19T17:46:43.152Z,16.05
2018-12-19T17:52:38.157Z,12.78
2018-12-19T17:58:33.148Z,11.57
2018-12-19T18:04:28.218Z,10.42
2018-12-19T18:10:23.150Z,13.28
2018-12-19T18:16:18.206Z,24.12
2018-12-19T18:22:13.257Z,22.2
2018-12-19T18:28:08.169Z,27.72
2018-12-19T18:34:03.215Z,27.51
2018-12-19T18:39:58.173Z,21.27
2018-12-19T18:45:53.235Z,18.02
2018-12-19T18:51:48.245Z,20.37
2018-12-19T18:57:43.199Z,20.85
2018-12-19T19:03:38.183Z,18.85
2018-12-19T19:09:33.213Z,14.23
2018-12-19T19:15:28.173Z,25.26
2018-12-19T19:21:23.176Z,24.86
2018-12-19T19:27:18.198Z,16.64
2018-12-19T19:33:13.204Z,16.98
2018-12-19T19:39:08.215Z,21.63
2018-12-19T19:45:03.226Z,24.84
2018-12-19T19:50:58.222Z,31.96
2018-12-19T19:56:53.204Z,29.72
2018-12-19T20:02:48.196Z,30.16
2018-12-19T20:08:43.213Z,26.87
2018-12-19T20:14:38.263Z,27.46
2018-12-19T20:20:33.221Z,35.19
2018-12-19T20:26:28.222Z,26.5
2018-12-19T20:32:23.229Z,26.07
2018-12-19T20:38:18.229Z,29.51
2018-12-19T20:44:13.219Z,23.72
2018-12-19T20:50:08.235Z,21.63
2018-12-19T20:56:03.784Z,21.03
2018-12-19T21:01:58.236Z,23.45
2018-12-19T21:07:53.237Z,25.07
2018-12-19T21:13:48.241Z,30.27
2018-12-19T21:19:43.335Z,28.79
2018-12-19T21:25:38.238Z,30.91
2018-12-19T21:31:33.262Z,26.59
2018-12-19T21:37:28.266Z,26.93
2018-12-19T21:43:23.262Z,25.24
2018-12-19T21:49:18.355Z,20.85
2018-12-19T21:55:13.309Z,18.79
2018-12-19T22:01:08.281Z,18.53
2018-12-19T22:07:03.352Z,17.4
2018-12-19T22:12:58.377Z,15.28
2018-12-19T22:18:53.327Z,16.21
2018-12-19T22:24:48.288Z,14.04
2018-12-19T22:30:43.340Z,13.53
2018-12-19T22:36:38.284Z,13.9
2018-12-19T22:42:33.383Z,14.05
2018-12-19T22:48:28.402Z,13.57
2018-12-19T22:54:23.323Z,13.69
2018-12-19T23:00:18.328Z,16.61
2018-12-19T23:06:13.329Z,15.89
2018-12-19T23:12:08.403Z,21.43
2018-12-19T23:18:03.341Z,26.59
2018-12-19T23:23:58.359Z,26.45
2018-12-19T23:29:53.313Z,28.33
2018-12-19T23:35:48.390Z,29.43
2018-12-19T23:41:43.464Z,26.72
2018-12-19T23:47:38.476Z,28.06
2018-12-19T23:53:33.384Z,27.56
2018-12-19T23:59:28.539Z,20.9
